Airfield :
LOGIN :

Register | Disclaimer

   EN    FR    IT 

 










Legend :    VFR   Marginal VFR   IFR   Intensive IFR   Very Intensive IFR
Visi :
Ceiling :
>= 8 km
>= 3000ft
5 to 8 km
1000 to 3000 ft
1500m to 5 km
500 to 1000 ft
800 to 1500m
200 to 500 ft
< 800m
< 200 ft
Symbols :   Thunderstorms  Fog  Heavy snow  Heavy precipitations  Wind > 20 kt
SIGMETs :     Misc.  Thunderstorms  Icing  Turbulence  Mountain Waves  Volcanic Ashes






- Airport Elevation : 52 ft
- IATA code : IOM


EGNS - Isle of Man

CURRENT METAR :
  • 030720Z 30012KT 9999 SCT013 14/10 Q1017 NOSIG

EXPIRED METARs :
  • 030650Z 30010KT 9999 SCT013 14/10 Q1017 NOSIG
  • 030620Z 29011KT 260V330 9999 FEW013 13/10 Q1017 NOSIG
  • 030550Z 29009KT 250V330 9999 FEW012 SCT015 BKN038 13/10 Q1017
  • 030520Z 28008KT 250V330 9999 FEW012 BKN015 13/11 Q1016
  • 030450Z 27009KT 9999 FEW012 SCT016 BKN037 13/11 Q1016

Expired Forecast.



MET'MAP, your aeronautical weather chart ! - Copyright ORBIFLY December 2007 - Disclaimer

ORBIFLY MET'MAP TEAM :

Programming & Development : Alexandra Zaïnal
Original concept : Baudouin d'Aumeries
Technical & hardware support : Manuel Goepfert
Assistance : Marc-Olivier Méhu




SOURCES & CREDITS :

   NOAA